Montrose, AL (36559)

11:50 PM CDT on July 26, 2016 (GMT -0500)
Ecor Rouge | | Change Station

Elev 0 ft 30.56 °N, 87.90 °W | Updated 2 minutes ago

Mostly Cloudy
Mostly Cloudy
85.6 °F
Feels Like 83 °F
N
15.0
Wind Variable Wind from SW
Gusts 22.0 mph

Today
High -- | Low -- °F
--% Chance of Precip.
Yesterday
High -- | Low -- °F
Precip. -- in
Pressure 30.04 in
Visibility 10.0 miles
Clouds Scattered Clouds 2600 ft
Scattered Clouds 3500 ft
Mostly Cloudy 4100 ft
Heat Index 83 °F
Dew Point Not available.
Humidity Not available.
Rainfall 0.60 in
Snow Depth Not available.
6:06 AM 7:49 PM
Waning Gibbous, 47% visible
METAR KCQF 270435Z AUTO 22006KT 10SM SCT026 SCT035 BKN041 26/23 A3004 RMK AO2
Pressure 30.04 in
Visibility 10.0 miles
Clouds Scattered Clouds 2600 ft
Scattered Clouds 3500 ft
Mostly Cloudy 4100 ft
Heat Index 83 °F
Dew Point Not available.
Humidity Not available.
Rainfall 0.60 in
Snow Depth Not available.
6:06 AM 7:49 PM
Waning Gibbous, 47% visible
METAR KCQF 270435Z AUTO 22006KT 10SM SCT026 SCT035 BKN041 26/23 A3004 RMK AO2

10-Day Weather Forecast

Almanac

Astronomy

Jul. 26, 2016 Rise Set
Actual Time
Civil Twilight
Nautical Twilight
Astronomical Twilight
Moon
Length of Visible Light
Length of Day
Tomorrow will be .
, % of the Moon is Illuminated

Today's Extremes

State Highs State Lows

Community

WunderPhotos

Upload Photos

1,927,814 photos uploaded!

WunderBlog® & News

Nearby

Air Quality

  Air Quality AQ Index Pollutant
Not available.

Snow Depth

Station Depth Elevation

Earthquake Activity

City Distance Mag. Time & Date
Minimum magnitude displayed is 2.5.

Coastal Water Temperatures

Place Temperature

Stations

Nearby Weather Stations

Station Location Temp. Windchill Dew Point Humidity Wind Precip. Elev Updated Type
                   

Watches & Warnings

There are currently no watches in effect.